sensor_id;sensor_type;location;lat;lon;timestamp;pressure;altitude;pressure_sealevel;temperature;humidity
49915;BME280;35806;47.958;13.158;2024-03-08T00:01:40;94604.66;;;-0.57;58.24
49915;BME280;35806;47.958;13.158;2024-03-08T00:04:08;94603.27;;;-0.40;58.18
49915;BME280;35806;47.958;13.158;2024-03-08T00:06:35;94601.73;;;-0.90;58.59
49915;BME280;35806;47.958;13.158;2024-03-08T00:09:10;94601.37;;;-1.15;59.33
49915;BME280;35806;47.958;13.158;2024-03-08T00:11:37;94601.77;;;-0.69;58.85
49915;BME280;35806;47.958;13.158;2024-03-08T00:14:05;94597.90;;;-0.72;58.38
49915;BME280;35806;47.958;13.158;2024-03-08T00:16:32;94597.36;;;-1.09;59.17
49915;BME280;35806;47.958;13.158;2024-03-08T00:19:01;94596.03;;;-1.06;59.21
49915;BME280;35806;47.958;13.158;2024-03-08T00:21:28;94593.06;;;-0.62;59.17
49915;BME280;35806;47.958;13.158;2024-03-08T00:23:55;94593.49;;;-0.72;57.88
49915;BME280;35806;47.958;13.158;2024-03-08T00:26:23;94593.70;;;-0.61;58.88
49915;BME280;35806;47.958;13.158;2024-03-08T00:28:50;94590.68;;;-0.58;59.15
49915;BME280;35806;47.958;13.158;2024-03-08T00:31:18;94587.68;;;-0.80;58.67
49915;BME280;35806;47.958;13.158;2024-03-08T00:33:45;94588.20;;;-0.73;59.02
49915;BME280;35806;47.958;13.158;2024-03-08T00:36:12;94588.97;;;-0.52;58.47
49915;BME280;35806;47.958;13.158;2024-03-08T00:38:39;94587.42;;;-0.78;59.13
49915;BME280;35806;47.958;13.158;2024-03-08T00:41:07;94581.94;;;-1.08;59.49
49915;BME280;35806;47.958;13.158;2024-03-08T00:43:34;94580.02;;;-1.06;60.03
49915;BME280;35806;47.958;13.158;2024-03-08T00:46:02;94579.24;;;-1.03;59.70
49915;BME280;35806;47.958;13.158;2024-03-08T00:48:29;94577.19;;;-1.31;60.40
49915;BME280;35806;47.958;13.158;2024-03-08T00:50:57;94575.36;;;-1.46;60.58
49915;BME280;35806;47.958;13.158;2024-03-08T00:53:24;94571.61;;;-1.36;61.67
49915;BME280;35806;47.958;13.158;2024-03-08T00:55:56;94572.51;;;-1.63;62.42
49915;BME280;35806;47.958;13.158;2024-03-08T00:58:24;94571.17;;;-1.73;63.32
49915;BME280;35806;47.958;13.158;2024-03-08T01:00:51;94568.74;;;-1.72;62.82
49915;BME280;35806;47.958;13.158;2024-03-08T01:03:19;94569.30;;;-1.13;61.54
49915;BME280;35806;47.958;13.158;2024-03-08T01:05:46;94564.92;;;-1.41;62.24
49915;BME280;35806;47.958;13.158;2024-03-08T01:08:14;94565.84;;;-1.34;61.57
49915;BME280;35806;47.958;13.158;2024-03-08T01:10:41;94564.56;;;-1.34;62.14
49915;BME280;35806;47.958;13.158;2024-03-08T01:13:08;94560.80;;;-1.58;62.06
49915;BME280;35806;47.958;13.158;2024-03-08T01:15:35;94560.92;;;-1.28;62.05
49915;BME280;35806;47.958;13.158;2024-03-08T01:18:03;94555.90;;;-1.26;61.61
49915;BME280;35806;47.958;13.158;2024-03-08T01:20:31;94554.67;;;-1.45;62.38
49915;BME280;35806;47.958;13.158;2024-03-08T01:22:58;94551.60;;;-2.18;63.38
49915;BME280;35806;47.958;13.158;2024-03-08T01:25:26;94548.47;;;-1.55;63.77
49915;BME280;35806;47.958;13.158;2024-03-08T01:27:54;94548.71;;;-2.20;64.49
49915;BME280;35806;47.958;13.158;2024-03-08T01:30:21;94544.10;;;-2.29;65.55
49915;BME280;35806;47.958;13.158;2024-03-08T01:32:48;94534.87;;;-2.50;67.13
49915;BME280;35806;47.958;13.158;2024-03-08T01:35:16;94533.12;;;-2.69;67.64
49915;BME280;35806;47.958;13.158;2024-03-08T01:37:43;94530.35;;;-1.91;65.79
49915;BME280;35806;47.958;13.158;2024-03-08T01:40:11;94526.21;;;-2.55;67.41
49915;BME280;35806;47.958;13.158;2024-03-08T01:42:39;94521.99;;;-2.01;66.54
49915;BME280;35806;47.958;13.158;2024-03-08T01:45:07;94515.18;;;-2.08;65.89
49915;BME280;35806;47.958;13.158;2024-03-08T01:47:36;94515.03;;;-2.60;67.57
49915;BME280;35806;47.958;13.158;2024-03-08T01:50:05;94509.45;;;-2.74;68.15
49915;BME280;35806;47.958;13.158;2024-03-08T01:52:32;94506.72;;;-2.54;67.66
49915;BME280;35806;47.958;13.158;2024-03-08T01:55:02;94505.77;;;-2.56;67.72
49915;BME280;35806;47.958;13.158;2024-03-08T01:57:31;94501.85;;;-2.87;68.72
49915;BME280;35806;47.958;13.158;2024-03-08T01:59:58;94504.57;;;-2.53;67.33
49915;BME280;35806;47.958;13.158;2024-03-08T02:02:26;94503.51;;;-2.15;67.21
49915;BME280;35806;47.958;13.158;2024-03-08T02:04:54;94497.94;;;-2.71;68.43
49915;BME280;35806;47.958;13.158;2024-03-08T02:07:21;94495.80;;;-1.92;67.05
49915;BME280;35806;47.958;13.158;2024-03-08T02:09:48;94493.77;;;-2.04;67.15
49915;BME280;35806;47.958;13.158;2024-03-08T02:12:15;94498.51;;;-2.25;67.99
49915;BME280;35806;47.958;13.158;2024-03-08T02:14:43;94494.87;;;-1.80;67.00
49915;BME280;35806;47.958;13.158;2024-03-08T02:17:11;94497.00;;;-2.35;67.80
49915;BME280;35806;47.958;13.158;2024-03-08T02:19:38;94491.48;;;-2.44;68.12
49915;BME280;35806;47.958;13.158;2024-03-08T02:22:06;94487.84;;;-2.46;68.41
49915;BME280;35806;47.958;13.158;2024-03-08T02:24:33;94490.43;;;-2.57;68.51
49915;BME280;35806;47.958;13.158;2024-03-08T02:27:01;94488.34;;;-2.51;68.00
49915;BME280;35806;47.958;13.158;2024-03-08T02:29:28;94477.37;;;-1.95;67.16
49915;BME280;35806;47.958;13.158;2024-03-08T02:31:56;94480.85;;;-2.30;66.39
49915;BME280;35806;47.958;13.158;2024-03-08T02:34:23;94476.43;;;-2.13;67.08
49915;BME280;35806;47.958;13.158;2024-03-08T02:36:50;94475.97;;;-1.89;65.99
49915;BME280;35806;47.958;13.158;2024-03-08T02:39:18;94474.07;;;-2.81;68.44
49915;BME280;35806;47.958;13.158;2024-03-08T02:41:45;94469.20;;;-2.39;68.79
49915;BME280;35806;47.958;13.158;2024-03-08T02:44:13;94465.95;;;-2.36;68.10
49915;BME280;35806;47.958;13.158;2024-03-08T02:46:41;94465.93;;;-2.52;68.18
49915;BME280;35806;47.958;13.158;2024-03-08T02:49:08;94459.92;;;-2.34;67.69
49915;BME280;35806;47.958;13.158;2024-03-08T02:51:36;94461.11;;;-2.38;68.21
49915;BME280;35806;47.958;13.158;2024-03-08T02:54:03;94462.12;;;-2.92;68.56
49915;BME280;35806;47.958;13.158;2024-03-08T02:56:31;94458.51;;;-2.60;68.72
49915;BME280;35806;47.958;13.158;2024-03-08T02:58:59;94455.22;;;-2.74;68.09
49915;BME280;35806;47.958;13.158;2024-03-08T03:01:27;94453.32;;;-2.39;67.66
49915;BME280;35806;47.958;13.158;2024-03-08T03:03:54;94450.05;;;-2.61;67.74
49915;BME280;35806;47.958;13.158;2024-03-08T03:06:21;94450.67;;;-2.28;67.71
49915;BME280;35806;47.958;13.158;2024-03-08T03:08:53;94450.65;;;-2.02;66.78
49915;BME280;35806;47.958;13.158;2024-03-08T03:11:20;94454.19;;;-2.65;68.10
49915;BME280;35806;47.958;13.158;2024-03-08T03:13:48;94453.78;;;-2.56;67.66
49915;BME280;35806;47.958;13.158;2024-03-08T03:16:17;94455.77;;;-2.70;68.01
49915;BME280;35806;47.958;13.158;2024-03-08T03:18:44;94448.06;;;-2.82;68.70
49915;BME280;35806;47.958;13.158;2024-03-08T03:21:12;94440.70;;;-2.18;66.88
49915;BME280;35806;47.958;13.158;2024-03-08T03:23:40;94443.80;;;-1.74;66.04
49915;BME280;35806;47.958;13.158;2024-03-08T03:26:07;94445.25;;;-2.04;65.98
49915;BME280;35806;47.958;13.158;2024-03-08T03:28:34;94444.40;;;-2.18;67.02
49915;BME280;35806;47.958;13.158;2024-03-08T03:31:02;94445.95;;;-2.89;68.04
49915;BME280;35806;47.958;13.158;2024-03-08T03:33:30;94444.41;;;-2.05;66.58
49915;BME280;35806;47.958;13.158;2024-03-08T03:35:57;94443.14;;;-2.98;68.35
49915;BME280;35806;47.958;13.158;2024-03-08T03:38:24;94438.73;;;-2.38;67.40
49915;BME280;35806;47.958;13.158;2024-03-08T03:40:52;94442.45;;;-2.39;67.35
49915;BME280;35806;47.958;13.158;2024-03-08T03:43:19;94437.28;;;-2.22;67.18
49915;BME280;35806;47.958;13.158;2024-03-08T03:45:46;94437.70;;;-2.30;66.65
49915;BME280;35806;47.958;13.158;2024-03-08T03:48:14;94432.27;;;-2.00;66.21
49915;BME280;35806;47.958;13.158;2024-03-08T03:50:42;94433.10;;;-1.72;65.20
49915;BME280;35806;47.958;13.158;2024-03-08T03:53:09;94438.11;;;-2.78;67.80
49915;BME280;35806;47.958;13.158;2024-03-08T03:55:37;94433.10;;;-1.93;66.08
49915;BME280;35806;47.958;13.158;2024-03-08T03:58:04;94430.36;;;-2.50;66.26
49915;BME280;35806;47.958;13.158;2024-03-08T04:00:32;94427.64;;;-2.35;66.18
49915;BME280;35806;47.958;13.158;2024-03-08T04:03:00;94427.53;;;-2.64;66.43
49915;BME280;35806;47.958;13.158;2024-03-08T04:05:27;94426.94;;;-1.94;65.98
49915;BME280;35806;47.958;13.158;2024-03-08T04:07:54;94427.77;;;-2.37;65.55
49915;BME280;35806;47.958;13.158;2024-03-08T04:10:22;94425.66;;;-2.24;67.26
49915;BME280;35806;47.958;13.158;2024-03-08T04:12:49;94428.97;;;-2.18;66.79
49915;BME280;35806;47.958;13.158;2024-03-08T04:15:16;94430.26;;;-2.06;66.74
49915;BME280;35806;47.958;13.158;2024-03-08T04:17:44;94425.30;;;-1.83;66.24
49915;BME280;35806;47.958;13.158;2024-03-08T04:20:12;94425.74;;;-2.30;67.00
49915;BME280;35806;47.958;13.158;2024-03-08T04:22:39;94424.64;;;-2.41;67.63
49915;BME280;35806;47.958;13.158;2024-03-08T04:25:07;94419.18;;;-2.47;67.06
49915;BME280;35806;47.958;13.158;2024-03-08T04:27:35;94420.31;;;-2.56;67.74
49915;BME280;35806;47.958;13.158;2024-03-08T04:30:03;94418.20;;;-2.53;66.83
49915;BME280;35806;47.958;13.158;2024-03-08T04:32:30;94416.12;;;-2.29;66.53
49915;BME280;35806;47.958;13.158;2024-03-08T04:34:58;94417.59;;;-2.77;66.96
49915;BME280;35806;47.958;13.158;2024-03-08T04:37:25;94413.07;;;-2.46;66.86
49915;BME280;35806;47.958;13.158;2024-03-08T04:39:53;94413.06;;;-3.08;68.51
49915;BME280;35806;47.958;13.158;2024-03-08T04:42:21;94413.01;;;-2.83;68.39
49915;BME280;35806;47.958;13.158;2024-03-08T04:44:49;94408.73;;;-2.41;67.63
49915;BME280;35806;47.958;13.158;2024-03-08T04:47:17;94411.21;;;-2.39;67.40
49915;BME280;35806;47.958;13.158;2024-03-08T04:49:45;94410.48;;;-2.40;67.62
49915;BME280;35806;47.958;13.158;2024-03-08T04:52:12;94410.60;;;-2.98;69.05
49915;BME280;35806;47.958;13.158;2024-03-08T04:54:39;94405.19;;;-2.03;66.99
49915;BME280;35806;47.958;13.158;2024-03-08T04:57:06;94403.67;;;-2.04;66.96
49915;BME280;35806;47.958;13.158;2024-03-08T04:59:34;94401.46;;;-1.63;65.27
49915;BME280;35806;47.958;13.158;2024-03-08T05:02:02;94397.90;;;-2.01;65.89
49915;BME280;35806;47.958;13.158;2024-03-08T05:04:29;94402.17;;;-2.17;65.95
49915;BME280;35806;47.958;13.158;2024-03-08T05:06:57;94402.48;;;-2.79;65.43
49915;BME280;35806;47.958;13.158;2024-03-08T05:09:24;94402.44;;;-1.63;64.66
49915;BME280;35806;47.958;13.158;2024-03-08T05:11:52;94402.81;;;-1.59;63.93
49915;BME280;35806;47.958;13.158;2024-03-08T05:14:20;94399.57;;;-2.22;65.20
49915;BME280;35806;47.958;13.158;2024-03-08T05:16:47;94402.77;;;-2.09;65.99
49915;BME280;35806;47.958;13.158;2024-03-08T05:19:15;94400.37;;;-2.52;65.91
49915;BME280;35806;47.958;13.158;2024-03-08T05:21:42;94394.74;;;-2.09;65.31
49915;BME280;35806;47.958;13.158;2024-03-08T05:24:10;94396.82;;;-2.37;65.30
49915;BME280;35806;47.958;13.158;2024-03-08T05:26:37;94391.95;;;-1.67;64.53
49915;BME280;35806;47.958;13.158;2024-03-08T05:29:05;94395.88;;;-2.53;65.42
49915;BME280;35806;47.958;13.158;2024-03-08T05:31:38;94393.02;;;-2.76;65.73
49915;BME280;35806;47.958;13.158;2024-03-08T05:34:09;94393.12;;;-1.68;64.09
49915;BME280;35806;47.958;13.158;2024-03-08T05:36:36;94391.39;;;-2.10;65.24
49915;BME280;35806;47.958;13.158;2024-03-08T05:39:05;94391.89;;;-1.92;65.14
49915;BME280;35806;47.958;13.158;2024-03-08T05:41:34;94393.88;;;-2.34;66.24
49915;BME280;35806;47.958;13.158;2024-03-08T05:44:01;94391.14;;;-2.75;66.21
49915;BME280;35806;47.958;13.158;2024-03-08T05:46:29;94388.99;;;-1.88;64.53
49915;BME280;35806;47.958;13.158;2024-03-08T05:48:57;94389.82;;;-2.33;66.18
49915;BME280;35806;47.958;13.158;2024-03-08T05:51:26;94391.54;;;-2.43;66.80
49915;BME280;35806;47.958;13.158;2024-03-08T05:53:54;94390.47;;;-2.59;67.23
49915;BME280;35806;47.958;13.158;2024-03-08T05:56:22;94384.41;;;-2.81;67.65
49915;BME280;35806;47.958;13.158;2024-03-08T05:58:49;94384.99;;;-2.42;67.14
49915;BME280;35806;47.958;13.158;2024-03-08T06:01:16;94387.02;;;-2.23;66.83
49915;BME280;35806;47.958;13.158;2024-03-08T06:03:44;94386.48;;;-2.50;67.37
49915;BME280;35806;47.958;13.158;2024-03-08T06:06:12;94382.92;;;-2.79;67.94
49915;BME280;35806;47.958;13.158;2024-03-08T06:08:40;94385.85;;;-2.49;67.93
49915;BME280;35806;47.958;13.158;2024-03-08T06:11:08;94385.05;;;-2.71;67.25
49915;BME280;35806;47.958;13.158;2024-03-08T06:13:35;94376.18;;;-1.92;65.75
49915;BME280;35806;47.958;13.158;2024-03-08T06:16:04;94377.96;;;-2.25;65.92
49915;BME280;35806;47.958;13.158;2024-03-08T06:18:31;94378.73;;;-1.59;64.81
49915;BME280;35806;47.958;13.158;2024-03-08T06:21:04;94384.22;;;-2.35;66.80
49915;BME280;35806;47.958;13.158;2024-03-08T06:23:32;94385.45;;;-2.33;66.51
49915;BME280;35806;47.958;13.158;2024-03-08T06:26:01;94384.19;;;-2.68;66.62
49915;BME280;35806;47.958;13.158;2024-03-08T06:28:28;94384.80;;;-2.03;66.00
49915;BME280;35806;47.958;13.158;2024-03-08T06:30:56;94387.58;;;-1.96;65.80
49915;BME280;35806;47.958;13.158;2024-03-08T06:33:23;94389.86;;;-2.33;65.94
49915;BME280;35806;47.958;13.158;2024-03-08T06:35:51;94386.43;;;-1.87;65.10
49915;BME280;35806;47.958;13.158;2024-03-08T06:38:18;94382.20;;;-1.52;65.33
49915;BME280;35806;47.958;13.158;2024-03-08T06:40:46;94378.64;;;-1.69;64.71
49915;BME280;35806;47.958;13.158;2024-03-08T06:43:15;94379.04;;;-2.16;65.81
49915;BME280;35806;47.958;13.158;2024-03-08T06:45:42;94380.64;;;-2.03;65.22
49915;BME280;35806;47.958;13.158;2024-03-08T06:48:10;94378.21;;;-2.44;65.32
49915;BME280;35806;47.958;13.158;2024-03-08T06:50:37;94376.92;;;-2.06;65.84
49915;BME280;35806;47.958;13.158;2024-03-08T06:53:04;94376.38;;;-1.85;65.36
49915;BME280;35806;47.958;13.158;2024-03-08T06:55:34;94375.34;;;-2.09;65.56
49915;BME280;35806;47.958;13.158;2024-03-08T06:58:02;94378.78;;;-1.43;65.06
49915;BME280;35806;47.958;13.158;2024-03-08T07:00:30;94376.48;;;-2.05;65.61
49915;BME280;35806;47.958;13.158;2024-03-08T07:02:57;94374.36;;;-1.82;65.50
49915;BME280;35806;47.958;13.158;2024-03-08T07:05:25;94372.27;;;-2.10;66.30
49915;BME280;35806;47.958;13.158;2024-03-08T07:07:52;94368.75;;;-2.14;65.98
49915;BME280;35806;47.958;13.158;2024-03-08T07:10:20;94374.76;;;-2.63;66.87
49915;BME280;35806;47.958;13.158;2024-03-08T07:12:47;94373.40;;;-2.07;66.03
49915;BME280;35806;47.958;13.158;2024-03-08T07:15:15;94373.23;;;-1.55;65.27
49915;BME280;35806;47.958;13.158;2024-03-08T07:17:42;94374.68;;;-1.48;64.77
49915;BME280;35806;47.958;13.158;2024-03-08T07:20:11;94372.35;;;-2.24;65.81
49915;BME280;35806;47.958;13.158;2024-03-08T07:22:38;94372.19;;;-2.57;66.78
49915;BME280;35806;47.958;13.158;2024-03-08T07:25:07;94373.42;;;-2.71;67.14
49915;BME280;35806;47.958;13.158;2024-03-08T07:27:34;94368.18;;;-2.28;67.10
49915;BME280;35806;47.958;13.158;2024-03-08T07:30:02;94369.82;;;-2.11;66.90
49915;BME280;35806;47.958;13.158;2024-03-08T07:32:30;94366.57;;;-1.93;66.62
49915;BME280;35806;47.958;13.158;2024-03-08T07:34:57;94366.28;;;-1.70;66.17
49915;BME280;35806;47.958;13.158;2024-03-08T07:37:25;94365.41;;;-1.72;66.39
49915;BME280;35806;47.958;13.158;2024-03-08T07:39:52;94361.61;;;-1.61;66.32
49915;BME280;35806;47.958;13.158;2024-03-08T07:42:22;94363.46;;;-0.99;65.10
49915;BME280;35806;47.958;13.158;2024-03-08T07:44:49;94360.21;;;-0.82;64.02
49915;BME280;35806;47.958;13.158;2024-03-08T07:47:17;94362.71;;;-0.85;63.89
49915;BME280;35806;47.958;13.158;2024-03-08T07:49:49;94355.07;;;0.04;61.48
49915;BME280;35806;47.958;13.158;2024-03-08T07:52:21;94352.09;;;-0.01;60.35
49915;BME280;35806;47.958;13.158;2024-03-08T07:55:01;94356.15;;;0.17;59.79
49915;BME280;35806;47.958;13.158;2024-03-08T07:57:28;94356.53;;;0.48;59.79
49915;BME280;35806;47.958;13.158;2024-03-08T07:59:56;94354.83;;;0.93;58.49
49915;BME280;35806;47.958;13.158;2024-03-08T08:02:29;94355.92;;;0.57;58.74
49915;BME280;35806;47.958;13.158;2024-03-08T08:04:56;94354.31;;;0.62;58.25
49915;BME280;35806;47.958;13.158;2024-03-08T08:07:24;94352.48;;;1.05;57.50
49915;BME280;35806;47.958;13.158;2024-03-08T08:09:52;94346.79;;;1.56;56.74
49915;BME280;35806;47.958;13.158;2024-03-08T08:12:20;94346.56;;;1.34;55.51
49915;BME280;35806;47.958;13.158;2024-03-08T08:14:47;94344.10;;;1.99;55.60
49915;BME280;35806;47.958;13.158;2024-03-08T08:17:14;94339.82;;;1.49;56.44
49915;BME280;35806;47.958;13.158;2024-03-08T08:19:42;94339.03;;;0.51;57.91
49915;BME280;35806;47.958;13.158;2024-03-08T08:22:09;94340.43;;;0.46;58.42
49915;BME280;35806;47.958;13.158;2024-03-08T08:24:37;94338.06;;;0.85;57.36
49915;BME280;35806;47.958;13.158;2024-03-08T08:27:05;94338.18;;;0.30;57.02
49915;BME280;35806;47.958;13.158;2024-03-08T08:29:33;94333.88;;;1.05;57.51
49915;BME280;35806;47.958;13.158;2024-03-08T08:32:01;94328.37;;;1.68;56.03
49915;BME280;35806;47.958;13.158;2024-03-08T08:34:30;94323.68;;;2.32;55.67
49915;BME280;35806;47.958;13.158;2024-03-08T08:36:58;94318.55;;;3.07;52.87
49915;BME280;35806;47.958;13.158;2024-03-08T08:39:25;94315.50;;;3.10;52.43
49915;BME280;35806;47.958;13.158;2024-03-08T08:41:53;94313.59;;;3.59;52.33
49915;BME280;35806;47.958;13.158;2024-03-08T08:44:22;94311.97;;;2.96;52.37
49915;BME280;35806;47.958;13.158;2024-03-08T08:46:49;94311.98;;;3.26;52.28
49915;BME280;35806;47.958;13.158;2024-03-08T08:49:17;94308.16;;;2.99;52.47
49915;BME280;35806;47.958;13.158;2024-03-08T08:51:49;94305.72;;;3.61;51.50
49915;BME280;35806;47.958;13.158;2024-03-08T08:54:17;94307.29;;;3.45;50.96
49915;BME280;35806;47.958;13.158;2024-03-08T08:56:45;94305.85;;;3.60;51.95
49915;BME280;35806;47.958;13.158;2024-03-08T08:59:12;94303.21;;;3.81;50.17
49915;BME280;35806;47.958;13.158;2024-03-08T09:01:39;94300.11;;;3.91;50.64
49915;BME280;35806;47.958;13.158;2024-03-08T09:04:06;94296.06;;;3.57;50.31
49915;BME280;35806;47.958;13.158;2024-03-08T09:06:33;94300.54;;;4.29;48.36
49915;BME280;35806;47.958;13.158;2024-03-08T09:09:04;94293.27;;;3.74;48.99
49915;BME280;35806;47.958;13.158;2024-03-08T09:11:31;94293.74;;;3.98;49.01
49915;BME280;35806;47.958;13.158;2024-03-08T09:13:59;94293.62;;;4.13;50.17
49915;BME280;35806;47.958;13.158;2024-03-08T09:16:26;94292.88;;;4.13;47.35
49915;BME280;35806;47.958;13.158;2024-03-08T09:18:55;94289.78;;;4.99;48.65
49915;BME280;35806;47.958;13.158;2024-03-08T09:21:26;94287.10;;;4.11;49.47
49915;BME280;35806;47.958;13.158;2024-03-08T09:23:53;94278.25;;;4.64;49.51
49915;BME280;35806;47.958;13.158;2024-03-08T09:26:21;94282.73;;;3.78;50.99
49915;BME280;35806;47.958;13.158;2024-03-08T09:28:48;94282.16;;;4.35;50.33
49915;BME280;35806;47.958;13.158;2024-03-08T09:31:15;94274.09;;;4.42;51.01
49915;BME280;35806;47.958;13.158;2024-03-08T09:33:43;94270.90;;;5.06;48.63
49915;BME280;35806;47.958;13.158;2024-03-08T09:36:10;94266.11;;;4.67;49.29
49915;BME280;35806;47.958;13.158;2024-03-08T09:38:37;94263.63;;;5.51;48.24
49915;BME280;35806;47.958;13.158;2024-03-08T09:41:06;94268.00;;;4.64;48.40
49915;BME280;35806;47.958;13.158;2024-03-08T09:43:33;94265.83;;;5.23;47.49
49915;BME280;35806;47.958;13.158;2024-03-08T09:46:02;94260.42;;;5.34;48.59
49915;BME280;35806;47.958;13.158;2024-03-08T09:48:31;94265.94;;;4.96;48.00
49915;BME280;35806;47.958;13.158;2024-03-08T09:50:59;94260.34;;;5.10;47.49
49915;BME280;35806;47.958;13.158;2024-03-08T09:53:26;94266.91;;;4.59;48.91
49915;BME280;35806;47.958;13.158;2024-03-08T09:55:54;94264.67;;;4.41;49.56
49915;BME280;35806;47.958;13.158;2024-03-08T09:58:21;94267.59;;;4.29;48.18
49915;BME280;35806;47.958;13.158;2024-03-08T10:00:49;94261.76;;;4.35;48.83
49915;BME280;35806;47.958;13.158;2024-03-08T10:03:16;94259.13;;;4.34;48.92
49915;BME280;35806;47.958;13.158;2024-03-08T10:05:43;94254.23;;;5.52;47.97
49915;BME280;35806;47.958;13.158;2024-03-08T10:08:11;94257.94;;;4.51;47.89
49915;BME280;35806;47.958;13.158;2024-03-08T10:10:39;94255.97;;;4.65;48.48
49915;BME280;35806;47.958;13.158;2024-03-08T10:13:07;94251.87;;;4.91;47.59
49915;BME280;35806;47.958;13.158;2024-03-08T10:15:34;94242.22;;;5.61;46.93
49915;BME280;35806;47.958;13.158;2024-03-08T10:18:02;94242.17;;;5.56;46.95
49915;BME280;35806;47.958;13.158;2024-03-08T10:20:31;94239.09;;;6.31;45.85
49915;BME280;35806;47.958;13.158;2024-03-08T10:22:59;94236.90;;;6.09;46.19
49915;BME280;35806;47.958;13.158;2024-03-08T10:25:27;94237.57;;;6.11;46.43
49915;BME280;35806;47.958;13.158;2024-03-08T10:27:55;94238.70;;;5.41;46.14
49915;BME280;35806;47.958;13.158;2024-03-08T10:30:24;94237.56;;;5.84;47.31
49915;BME280;35806;47.958;13.158;2024-03-08T10:32:51;94233.57;;;6.05;46.04
49915;BME280;35806;47.958;13.158;2024-03-08T10:35:19;94227.77;;;5.65;46.01
49915;BME280;35806;47.958;13.158;2024-03-08T10:37:47;94230.30;;;5.49;46.25
49915;BME280;35806;47.958;13.158;2024-03-08T10:40:17;94224.79;;;5.52;47.27
49915;BME280;35806;47.958;13.158;2024-03-08T10:42:52;94224.05;;;5.55;46.48
49915;BME280;35806;47.958;13.158;2024-03-08T10:45:29;94227.97;;;5.34;48.17
49915;BME280;35806;47.958;13.158;2024-03-08T10:48:10;94223.86;;;5.48;46.73
49915;BME280;35806;47.958;13.158;2024-03-08T10:50:45;94226.39;;;5.18;46.79
49915;BME280;35806;47.958;13.158;2024-03-08T10:53:14;94228.00;;;5.20;46.15
49915;BME280;35806;47.958;13.158;2024-03-08T10:55:43;94226.09;;;5.40;47.78
49915;BME280;35806;47.958;13.158;2024-03-08T10:58:10;94219.97;;;4.77;47.53
49915;BME280;35806;47.958;13.158;2024-03-08T11:00:43;94227.34;;;4.44;47.88
49915;BME280;35806;47.958;13.158;2024-03-08T11:03:44;94220.57;;;4.95;47.75
49915;BME280;35806;47.958;13.158;2024-03-08T11:06:16;94208.26;;;5.29;46.49
49915;BME280;35806;47.958;13.158;2024-03-08T11:08:44;94204.12;;;5.80;46.31
49915;BME280;35806;47.958;13.158;2024-03-08T11:11:30;94199.95;;;5.40;46.98
49915;BME280;35806;47.958;13.158;2024-03-08T11:13:58;94190.70;;;5.44;48.26
49915;BME280;35806;47.958;13.158;2024-03-08T11:16:44;94192.69;;;6.03;46.00
49915;BME280;35806;47.958;13.158;2024-03-08T11:19:27;94191.08;;;5.71;45.69
49915;BME280;35806;47.958;13.158;2024-03-08T11:21:58;94185.55;;;5.78;45.68
49915;BME280;35806;47.958;13.158;2024-03-08T11:24:26;94183.62;;;6.52;45.83
49915;BME280;35806;47.958;13.158;2024-03-08T11:26:57;94178.27;;;6.55;45.80
49915;BME280;35806;47.958;13.158;2024-03-08T11:29:41;94177.20;;;6.39;45.36
49915;BME280;35806;47.958;13.158;2024-03-08T11:32:10;94169.80;;;6.28;45.40
49915;BME280;35806;47.958;13.158;2024-03-08T11:34:41;94170.23;;;5.90;45.53
49915;BME280;35806;47.958;13.158;2024-03-08T11:37:14;94166.33;;;5.61;47.98
49915;BME280;35806;47.958;13.158;2024-03-08T11:39:47;94168.54;;;6.80;45.87
49915;BME280;35806;47.958;13.158;2024-03-08T11:42:15;94166.76;;;6.08;45.44
49915;BME280;35806;47.958;13.158;2024-03-08T11:44:42;94164.01;;;6.85;44.90
49915;BME280;35806;47.958;13.158;2024-03-08T11:47:10;94160.03;;;6.46;45.40
49915;BME280;35806;47.958;13.158;2024-03-08T11:49:37;94161.32;;;6.79;45.24
49915;BME280;35806;47.958;13.158;2024-03-08T11:52:05;94160.33;;;7.20;45.34
49915;BME280;35806;47.958;13.158;2024-03-08T11:54:33;94154.46;;;7.37;44.65
49915;BME280;35806;47.958;13.158;2024-03-08T11:57:01;94157.34;;;7.32;44.19
49915;BME280;35806;47.958;13.158;2024-03-08T11:59:28;94154.10;;;7.08;44.50
49915;BME280;35806;47.958;13.158;2024-03-08T12:02:02;94149.91;;;6.91;45.81
49915;BME280;35806;47.958;13.158;2024-03-08T12:04:30;94145.85;;;8.55;43.74
49915;BME280;35806;47.958;13.158;2024-03-08T12:07:00;94140.67;;;7.83;43.59
49915;BME280;35806;47.958;13.158;2024-03-08T12:09:28;94134.33;;;7.92;43.35
49915;BME280;35806;47.958;13.158;2024-03-08T12:11:55;94132.69;;;8.30;43.25
49915;BME280;35806;47.958;13.158;2024-03-08T12:14:22;94131.54;;;9.08;42.08
49915;BME280;35806;47.958;13.158;2024-03-08T12:16:51;94126.77;;;8.82;41.87
49915;BME280;35806;47.958;13.158;2024-03-08T12:19:18;94122.43;;;8.40;42.46
49915;BME280;35806;47.958;13.158;2024-03-08T12:21:51;94116.43;;;8.66;42.13
49915;BME280;35806;47.958;13.158;2024-03-08T12:24:39;94109.39;;;9.70;41.53
49915;BME280;35806;47.958;13.158;2024-03-08T12:27:18;94113.37;;;9.01;40.87
49915;BME280;35806;47.958;13.158;2024-03-08T12:29:46;94105.37;;;8.85;40.42
49915;BME280;35806;47.958;13.158;2024-03-08T12:32:14;94107.90;;;8.47;40.98
49915;BME280;35806;47.958;13.158;2024-03-08T12:34:42;94101.58;;;8.45;40.71
49915;BME280;35806;47.958;13.158;2024-03-08T12:37:10;94100.46;;;8.53;42.90
49915;BME280;35806;47.958;13.158;2024-03-08T12:39:40;94098.88;;;9.05;42.02
49915;BME280;35806;47.958;13.158;2024-03-08T12:42:08;94099.09;;;8.76;42.06
49915;BME280;35806;47.958;13.158;2024-03-08T12:44:35;94103.68;;;8.80;42.16
49915;BME280;35806;47.958;13.158;2024-03-08T12:47:08;94100.96;;;8.47;42.12
49915;BME280;35806;47.958;13.158;2024-03-08T12:49:35;94098.68;;;8.95;42.30
49915;BME280;35806;47.958;13.158;2024-03-08T12:52:03;94095.43;;;9.33;41.95
49915;BME280;35806;47.958;13.158;2024-03-08T12:54:30;94092.38;;;9.24;41.41
49915;BME280;35806;47.958;13.158;2024-03-08T12:56:58;94090.64;;;8.95;42.30
49915;BME280;35806;47.958;13.158;2024-03-08T12:59:26;94080.26;;;9.08;42.28
49915;BME280;35806;47.958;13.158;2024-03-08T13:01:53;94080.04;;;10.30;40.79